»·PEaware :: N61947 O09-KTRK

N61947 :: O09-KTRK

FLIGHT INFORMATION

Flight Status: Arrived
Operator: Privately registered:
United States
More flights under this callsign
Pilot: Andrew M. (614)
Aircraft: CESSNA 182 SKYLANE
(C182)
More flights by this aircraft type
Origin: O09 Round Valley
United States
Destination: KTRK Truckee-Tahoe
United States
More flights between these airports :: More routes between these airports
Route: DIR
File this flight plan on PilotEdge
Remarks:
Altitude:
(Current/Filed)
11,500ft
Speed:
(Current/Filed)
165kts
Departed: 09-Sep-12 05:43 PM
Arrived: 09-Sep-12 07:01 PM
Distance/Time
Traveled:
147nm/1:18
Distance/Time
To Go:
Arrived

Flight Plot

Page will automatically refresh every two minutes.


Map Options




Map Legend


Flown Route
Filed Route
Departure Airport
Arrival Airport
Navaid (VOR, NDB)
Fix

Horizontal Profiles

Position Reports

Time Latitude Longitude Heading Altitude Ground
Speed
09-Sep-12 17:40 39.787513 -123.260508 350 1410ft 0kts
09-Sep-12 17:41 39.787539 -123.260505 12 1410ft 0kts
09-Sep-12 17:42 39.796751 -123.275756 345 1934ft 85kts
09-Sep-12 17:43 39.810604 -123.257598 95 3014ft 108kts
09-Sep-12 17:44 39.803664 -123.223486 103 4410ft 95kts
09-Sep-12 17:45 39.789896 -123.190712 114 5137ft 133kts
09-Sep-12 17:46 39.776192 -123.147432 100 5591ft 140kts
09-Sep-12 17:47 39.767082 -123.100793 95 6035ft 132kts
09-Sep-12 17:48 39.761055 -123.062962 91 7259ft 99kts
09-Sep-12 17:49 39.757304 -123.037409 89 8428ft 85kts
09-Sep-12 17:50 39.753418 -123.009859 88 9510ft 80kts
09-Sep-12 17:51 39.749542 -122.981759 90 10368ft 89kts
09-Sep-12 17:52 39.745128 -122.950163 91 11135ft 95kts
09-Sep-12 17:53 39.740006 -122.913251 94 11344ft 128kts
09-Sep-12 17:54 39.734801 -122.874385 94 11328ft 110kts
09-Sep-12 17:55 39.729447 -122.833811 96 11326ft 130kts
09-Sep-12 17:56 39.723549 -122.790889 98 11329ft 133kts
09-Sep-12 17:57 39.717341 -122.746390 99 11311ft 138kts
09-Sep-12 17:58 39.711347 -122.701229 100 11299ft 140kts
09-Sep-12 17:59 39.706235 -122.655214 100 11285ft 143kts
09-Sep-12 18:00 39.701184 -122.608437 100 11278ft 145kts
09-Sep-12 18:01 39.695934 -122.561742 100 11277ft 145kts
09-Sep-12 18:02 39.690580 -122.515178 100 11277ft 145kts
09-Sep-12 18:03 39.685116 -122.468126 100 11277ft 145kts
09-Sep-12 18:04 39.679558 -122.420536 101 11277ft 141kts
09-Sep-12 18:05 39.674004 -122.373196 101 11277ft 140kts
09-Sep-12 18:06 39.668420 -122.325752 101 11277ft 139kts
09-Sep-12 18:07 39.662903 -122.279057 101 11277ft 138kts
09-Sep-12 18:08 39.657413 -122.232779 101 11277ft 137kts
09-Sep-12 18:09 39.651926 -122.186633 101 11277ft 136kts
09-Sep-12 18:10 39.646394 -122.140324 101 11277ft 136kts
09-Sep-12 18:11 39.641051 -122.095755 101 11276ft 136kts
09-Sep-12 18:12 39.636022 -122.053926 100 11276ft 135kts
09-Sep-12 18:13 39.630510 -122.008220 100 11276ft 135kts
09-Sep-12 18:14 39.624975 -121.962480 100 11276ft 135kts
09-Sep-12 18:15 39.619232 -121.915177 100 11276ft 135kts
09-Sep-12 18:16 39.613809 -121.867370 101 11280ft 136kts
09-Sep-12 18:17 39.608065 -121.818295 102 11287ft 140kts
09-Sep-12 18:18 39.601902 -121.767350 102 11287ft 143kts
09-Sep-12 18:19 39.595829 -121.717812 102 11287ft 144kts
09-Sep-12 18:20 39.589592 -121.667297 102 11287ft 145kts
09-Sep-12 18:21 39.583615 -121.619110 102 11287ft 144kts
09-Sep-12 18:22 39.578181 -121.575562 101 11035ft 156kts
09-Sep-12 18:23 39.571897 -121.525057 101 10786ft 151kts
09-Sep-12 18:24 39.566117 -121.478815 102 10784ft 121kts
09-Sep-12 18:25 39.560997 -121.438437 102 10700ft 119kts
09-Sep-12 18:26 39.555932 -121.398584 101 10706ft 111kts
09-Sep-12 18:27 39.551795 -121.366061 99 10726ft 113kts
09-Sep-12 18:28 39.546752 -121.326347 98 10751ft 114kts
09-Sep-12 18:29 39.541670 -121.286311 96 10778ft 116kts
09-Sep-12 18:30 39.536488 -121.245504 96 10807ft 118kts
09-Sep-12 18:31 39.531216 -121.203943 98 10839ft 120kts
09-Sep-12 18:32 39.525759 -121.161581 97 10853ft 123kts
09-Sep-12 18:33 39.520117 -121.117701 97 10858ft 124kts
09-Sep-12 18:34 39.514476 -121.074032 97 10858ft 125kts
09-Sep-12 18:35 39.509043 -121.032043 97 10858ft 125kts
09-Sep-12 18:36 39.503444 -120.988911 97 10858ft 125kts
09-Sep-12 18:37 39.497757 -120.945283 97 10863ft 125kts
09-Sep-12 18:38 39.492165 -120.902586 96 10886ft 124kts
09-Sep-12 18:39 39.486983 -120.859665 96 10909ft 125kts
09-Sep-12 18:40 39.481565 -120.816916 96 10932ft 126kts
09-Sep-12 18:41 39.476005 -120.774148 95 10952ft 128kts
09-Sep-12 18:42 39.470350 -120.731117 95 10978ft 129kts
09-Sep-12 18:43 39.464557 -120.687101 96 10999ft 135kts
09-Sep-12 18:44 39.458532 -120.641606 98 10985ft 135kts
09-Sep-12 18:45 39.452509 -120.596397 100 10985ft 135kts
09-Sep-12 18:46 39.446327 -120.550276 101 11031ft 139kts
09-Sep-12 18:47 39.440303 -120.505417 102 10963ft 127kts
09-Sep-12 18:48 39.434487 -120.462305 103 11024ft 131kts
09-Sep-12 18:49 39.428680 -120.419246 104 10975ft 127kts
09-Sep-12 18:50 39.422667 -120.374960 105 11064ft 132kts
09-Sep-12 18:51 39.406811 -120.333916 127 10190ft 130kts
09-Sep-12 18:52 39.390034 -120.297238 128 9853ft 105kts
09-Sep-12 18:53 39.376397 -120.267331 128 9438ft 118kts
09-Sep-12 18:54 39.364427 -120.240529 130 9386ft 99kts
09-Sep-12 18:55 39.352120 -120.210634 123 8437ft 72kts
09-Sep-12 18:56 39.344426 -120.188585 134 7338ft 72kts
09-Sep-12 18:57 39.335658 -120.172652 147 6473ft 67kts
09-Sep-12 18:58 39.327177 -120.156865 136 6030ft 68kts
09-Sep-12 18:59 39.318524 -120.138747 117 5889ft 47kts
09-Sep-12 19:00 39.314605 -120.132300 251 5884ft 10kts
09-Sep-12 19:01 39.314435 -120.134120 256 5886ft 12kts
09-Sep-12 19:02 39.316625 -120.138436 296 5889ft 23kts
09-Sep-12 19:03 39.316677 -120.143690 234 5886ft 17kts

Navigation Log

Ident Type
Flight plan parsing failed, navigation log unavailable